KRB weather

Karumba Airport
Queensland, Australia

Public forecast

Using degrees Celsius for public forecast. Weather courtesy of forecast.io.

Closest aviation weather report (METAR) to Karumba Airport

Closest report is Normanton Airport, 19.4 nm (35.8 km) SE. Retrieved 2019/10/24 03:00 UTC (16 minutes ago):

YNTN 240300Z AUTO 02008KT 360V070 9999 // NCD 35/13 Q1011

Closest aviation forecast (TAF) to Karumba Airport

Closest forecast is Cairns International Airport, 284.6 nm (527.0 km) E. Retrieved 2019-10-24 00:33 UTC (3 hours ago):

TAF YBCS 232313Z 2400/2424 13014KT 9999 SCT035 FM241000 17008KT 9999 SCT022 SCT040 FM242300 12011KT 9999 SCT025